createdAt,value
2017-06-16T00:01:27.357Z,58.30
2017-06-16T00:03:55.637Z,58.20
2017-06-16T00:06:23.944Z,58.50
2017-06-16T00:08:52.224Z,58.50
2017-06-16T00:11:20.500Z,59.10
2017-06-16T00:13:48.905Z,58.90
2017-06-16T00:16:17.947Z,59.40
2017-06-16T00:18:46.220Z,59.40
2017-06-16T00:21:14.532Z,59.60
2017-06-16T00:23:42.832Z,60.10
2017-06-16T00:26:11.118Z,59.90
2017-06-16T00:28:39.425Z,60.10
2017-06-16T00:31:07.705Z,61.00
2017-06-16T00:33:35.968Z,61.20
2017-06-16T00:36:04.272Z,61.30
2017-06-16T00:38:33.341Z,62.40
2017-06-16T00:41:01.613Z,62.30
2017-06-16T00:43:30.680Z,61.70
2017-06-16T00:45:58.956Z,61.60
2017-06-16T00:48:29.116Z,62.60
2017-06-16T00:50:57.552Z,62.50
2017-06-16T00:53:25.824Z,63.00
2017-06-16T00:55:55.128Z,62.90
2017-06-16T00:58:23.439Z,62.80
2017-06-16T01:00:52.471Z,63.20
2017-06-16T01:03:20.756Z,63.20
2017-06-16T01:05:49.072Z,64.30
2017-06-16T01:08:17.343Z,64.30
2017-06-16T01:10:45.630Z,64.30
2017-06-16T01:13:14.120Z,64.20
2017-06-16T01:15:43.161Z,64.60
2017-06-16T01:18:11.428Z,64.10
2017-06-16T01:20:39.752Z,64.40
2017-06-16T01:23:08.044Z,65.00
2017-06-16T01:25:36.321Z,65.00
2017-06-16T01:28:04.626Z,65.70
2017-06-16T01:30:33.662Z,66.20
2017-06-16T01:33:02.324Z,66.20
2017-06-16T01:35:30.664Z,65.70
2017-06-16T01:37:58.940Z,65.80
2017-06-16T01:40:27.216Z,65.90
2017-06-16T01:42:55.520Z,66.80
2017-06-16T01:45:23.804Z,67.10
2017-06-16T01:47:52.076Z,67.30
2017-06-16T01:50:20.392Z,67.80
2017-06-16T01:52:48.648Z,68.30
2017-06-16T01:55:16.916Z,68.40
2017-06-16T01:57:45.992Z,68.60
2017-06-16T02:00:15.030Z,68.60
2017-06-16T02:02:43.298Z,68.60
2017-06-16T02:05:11.722Z,68.50
2017-06-16T02:07:39.987Z,68.50
2017-06-16T02:10:08.297Z,69.10
2017-06-16T02:12:36.692Z,69.10
2017-06-16T02:15:05.730Z,70.50
2017-06-16T02:17:34.013Z,69.60
2017-06-16T02:20:02.320Z,70.60
2017-06-16T02:22:30.853Z,70.40
2017-06-16T02:24:59.128Z,70.60
2017-06-16T02:27:28.397Z,70.30
2017-06-16T02:29:56.700Z,70.20
2017-06-16T02:32:24.973Z,70.10
2017-06-16T02:34:53.296Z,69.80
2017-06-16T02:37:22.330Z,69.80
2017-06-16T02:39:50.600Z,69.70
2017-06-16T02:42:18.908Z,70.10
2017-06-16T02:44:47.184Z,70.10
2017-06-16T02:47:15.463Z,70.10
2017-06-16T02:49:43.769Z,70.30
2017-06-16T02:52:12.805Z,71.70
2017-06-16T02:54:41.080Z,70.80
2017-06-16T02:57:09.408Z,71.10
2017-06-16T02:59:37.671Z,71.10
2017-06-16T03:02:05.952Z,71.50
2017-06-16T03:04:34.365Z,71.90
2017-06-16T03:07:03.400Z,73.50
2017-06-16T03:09:31.679Z,73.50
2017-06-16T03:12:00.168Z,72.30
2017-06-16T03:14:29.215Z,71.50
2017-06-16T03:16:57.497Z,71.40
2017-06-16T03:19:25.809Z,72.30
2017-06-16T03:21:54.096Z,71.80
2017-06-16T03:24:27.973Z,72.00
2017-06-16T03:26:56.241Z,72.90
2017-06-16T03:29:24.513Z,72.90
2017-06-16T03:31:52.819Z,71.80
2017-06-16T03:34:21.085Z,72.10
2017-06-16T03:36:50.255Z,72.00
2017-06-16T03:39:19.543Z,71.00
2017-06-16T03:41:48.572Z,70.70
2017-06-16T03:44:16.915Z,70.60
2017-06-16T03:46:45.200Z,68.60
2017-06-16T03:49:13.475Z,68.60
2017-06-16T03:51:41.757Z,67.90
2017-06-16T03:54:10.072Z,66.30
2017-06-16T03:56:38.352Z,63.50
2017-06-16T03:59:06.618Z,64.40
2017-06-16T04:01:34.912Z,63.90
2017-06-16T04:04:03.948Z,64.00
2017-06-16T04:06:32.215Z,63.90
2017-06-16T04:09:00.528Z,63.10
2017-06-16T04:11:29.567Z,63.10
2017-06-16T04:13:57.845Z,63.00
2017-06-16T04:16:26.918Z,62.50
2017-06-16T04:18:55.197Z,63.20
2017-06-16T04:21:24.228Z,62.40
2017-06-16T04:23:52.545Z,62.00
2017-06-16T04:26:20.820Z,61.60
2017-06-16T04:28:49.096Z,61.20
2017-06-16T04:31:17.511Z,62.00
2017-06-16T04:33:46.560Z,61.30
2017-06-16T04:36:14.828Z,61.20
2017-06-16T04:38:43.136Z,60.70
2017-06-16T04:41:11.411Z,60.90
2017-06-16T04:43:39.687Z,62.20
2017-06-16T04:46:08.019Z,63.00
2017-06-16T04:48:37.059Z,65.10
2017-06-16T04:51:05.324Z,65.00
2017-06-16T04:53:33.627Z,65.70
2017-06-16T04:56:01.900Z,66.10
2017-06-16T04:58:30.384Z,66.80
2017-06-16T05:00:59.480Z,66.90
2017-06-16T05:03:27.760Z,66.90
2017-06-16T05:05:56.080Z,66.40
2017-06-16T05:08:25.316Z,63.50
2017-06-16T05:10:54.364Z,61.50
2017-06-16T05:13:22.628Z,61.30
2017-06-16T05:15:50.988Z,60.00
2017-06-16T05:18:19.253Z,59.00
2017-06-16T05:20:47.527Z,56.90
2017-06-16T05:23:21.456Z,57.70
2017-06-16T05:25:49.772Z,58.10
2017-06-16T05:28:18.044Z,58.40
2017-06-16T05:30:46.363Z,57.00
2017-06-16T05:33:14.636Z,54.60
2017-06-16T05:35:42.900Z,54.00
2017-06-16T05:38:11.212Z,53.80
2017-06-16T05:40:40.256Z,54.00
2017-06-16T05:43:08.533Z,54.00
2017-06-16T05:45:36.848Z,54.00
2017-06-16T05:48:05.112Z,54.00
2017-06-16T05:50:33.396Z,53.10
2017-06-16T05:53:01.712Z,54.10
2017-06-16T05:55:30.744Z,53.20
2017-06-16T05:57:59.022Z,53.10
2017-06-16T06:00:27.320Z,53.90
2017-06-16T06:02:55.632Z,52.40
2017-06-16T06:05:23.897Z,52.70
2017-06-16T06:07:52.384Z,53.20
2017-06-16T06:10:21.447Z,51.50
2017-06-16T06:12:49.715Z,51.40
2017-06-16T06:15:18.032Z,51.30
2017-06-16T06:17:46.308Z,52.80
2017-06-16T06:20:14.572Z,52.30
2017-06-16T06:22:42.896Z,50.80
2017-06-16T06:25:11.176Z,52.70
2017-06-16T06:27:39.452Z,51.60
2017-06-16T06:30:07.764Z,51.20
2017-06-16T06:32:36.053Z,51.90
2017-06-16T06:35:04.320Z,51.90
2017-06-16T06:37:32.636Z,51.70
2017-06-16T06:40:01.672Z,52.50
2017-06-16T06:42:29.948Z,52.50
2017-06-16T06:44:58.265Z,51.20
2017-06-16T06:47:26.532Z,53.00
2017-06-16T06:49:54.809Z,51.10
2017-06-16T06:52:23.128Z,50.60
2017-06-16T06:54:52.167Z,50.50
2017-06-16T06:57:20.433Z,50.50
2017-06-16T06:59:48.736Z,50.10
2017-06-16T07:02:17.780Z,50.60
2017-06-16T07:04:46.055Z,50.50
2017-06-16T07:07:14.360Z,50.80
2017-06-16T07:09:42.632Z,50.40
2017-06-16T07:12:10.911Z,50.40
2017-06-16T07:14:39.207Z,50.10
2017-06-16T07:17:07.480Z,50.90
2017-06-16T07:19:36.520Z,51.00
2017-06-16T07:22:04.886Z,51.00
2017-06-16T07:24:33.144Z,51.20
2017-06-16T07:27:01.409Z,50.90
2017-06-16T07:29:29.814Z,50.00
2017-06-16T07:31:59.374Z,48.30
2017-06-16T07:34:27.654Z,48.00
2017-06-16T07:36:59.518Z,48.80
2017-06-16T07:39:28.673Z,48.40
2017-06-16T07:41:56.936Z,47.80
2017-06-16T07:44:25.247Z,48.00
2017-06-16T07:46:53.512Z,49.00
2017-06-16T07:49:21.792Z,47.90
2017-06-16T07:51:50.111Z,47.50
2017-06-16T07:54:19.149Z,46.40
2017-06-16T07:56:47.481Z,46.40
2017-06-16T07:59:16.011Z,46.50
2017-06-16T08:01:45.048Z,44.90
2017-06-16T08:04:13.320Z,44.50
2017-06-16T08:06:44.706Z,43.00
2017-06-16T08:09:13.744Z,43.30
2017-06-16T08:11:42.011Z,43.10
2017-06-16T08:14:10.307Z,42.20
2017-06-16T08:16:38.584Z,43.60
2017-06-16T08:19:06.849Z,43.10
2017-06-16T08:21:35.162Z,44.60
2017-06-16T08:24:03.436Z,42.80
2017-06-16T08:26:32.476Z,40.40
2017-06-16T08:29:00.782Z,40.30
2017-06-16T08:31:29.823Z,40.10
2017-06-16T08:33:58.100Z,40.10
2017-06-16T08:36:26.404Z,40.00
2017-06-16T08:38:54.679Z,40.60
2017-06-16T08:41:22.947Z,39.70
2017-06-16T08:43:51.253Z,41.10
2017-06-16T08:46:19.515Z,40.10
2017-06-16T08:48:48.557Z,41.00
2017-06-16T08:51:16.967Z,40.90
2017-06-16T08:53:46.000Z,39.80
2017-06-16T08:56:14.267Z,39.50
2017-06-16T08:58:42.573Z,38.90
2017-06-16T09:01:11.604Z,40.50
2017-06-16T09:03:39.888Z,40.30
2017-06-16T09:06:08.200Z,40.90
2017-06-16T09:08:36.476Z,40.70
2017-06-16T09:11:04.755Z,42.10
2017-06-16T09:13:33.244Z,40.60
2017-06-16T09:16:01.521Z,41.20
2017-06-16T09:18:30.553Z,42.50
2017-06-16T09:20:58.932Z,42.50
2017-06-16T09:23:27.213Z,40.40
2017-06-16T09:25:55.480Z,39.90
2017-06-16T09:28:24.660Z,41.40
2017-06-16T09:30:52.932Z,41.50
2017-06-16T09:33:21.964Z,42.10
2017-06-16T09:35:50.277Z,42.10
2017-06-16T09:38:19.309Z,40.60
2017-06-16T09:40:47.576Z,40.60
2017-06-16T09:43:16.068Z,41.20
2017-06-16T09:45:45.103Z,40.60
2017-06-16T09:48:13.376Z,40.00
2017-06-16T09:50:41.692Z,42.20
2017-06-16T09:53:09.964Z,43.70
2017-06-16T09:55:38.232Z,42.00
2017-06-16T09:58:06.524Z,42.50
2017-06-16T10:00:34.797Z,40.30
2017-06-16T10:03:03.076Z,41.80
2017-06-16T10:05:32.152Z,39.20
2017-06-16T10:08:00.425Z,39.00
2017-06-16T10:10:29.608Z,41.60
2017-06-16T10:12:58.676Z,41.20
2017-06-16T10:15:26.952Z,40.70
2017-06-16T10:17:55.992Z,37.90
2017-06-16T10:20:24.300Z,37.80
2017-06-16T10:22:53.336Z,38.40
2017-06-16T10:25:21.603Z,38.40
2017-06-16T10:27:49.908Z,40.60
2017-06-16T10:30:18.186Z,37.50
2017-06-16T10:32:46.473Z,38.40
2017-06-16T10:35:14.812Z,41.10
2017-06-16T10:37:43.092Z,38.80
2017-06-16T10:40:11.372Z,38.10
2017-06-16T10:42:39.855Z,39.00
2017-06-16T10:45:08.904Z,35.20
2017-06-16T10:47:37.168Z,35.70
2017-06-16T10:50:05.480Z,39.60
2017-06-16T10:52:35.116Z,36.60
2017-06-16T10:55:03.396Z,36.90
2017-06-16T10:57:31.700Z,38.70
2017-06-16T10:59:59.981Z,37.30
2017-06-16T11:02:28.259Z,35.70
2017-06-16T11:04:56.572Z,36.40
2017-06-16T11:07:24.862Z,35.20
2017-06-16T11:09:53.140Z,33.90
2017-06-16T11:12:21.647Z,36.20
2017-06-16T11:14:50.683Z,35.40
2017-06-16T11:17:18.949Z,35.10
2017-06-16T11:19:47.258Z,35.10
2017-06-16T11:22:16.296Z,35.30
2017-06-16T11:24:45.580Z,35.40
2017-06-16T11:27:13.981Z,35.50
2017-06-16T11:29:43.017Z,33.70
2017-06-16T11:32:11.281Z,33.80
2017-06-16T11:34:39.680Z,34.50
2017-06-16T11:37:07.952Z,36.20
2017-06-16T11:39:36.984Z,31.70
2017-06-16T11:42:05.324Z,31.60
2017-06-16T11:44:33.595Z,32.00
2017-06-16T11:47:01.897Z,32.90
2017-06-16T11:49:30.203Z,32.20
2017-06-16T11:51:58.484Z,33.30
2017-06-16T11:54:26.779Z,33.60
2017-06-16T11:56:55.135Z,31.50
2017-06-16T11:59:23.412Z,33.00
2017-06-16T12:01:51.689Z,32.00
2017-06-16T12:04:20.760Z,33.80
2017-06-16T12:06:49.799Z,34.40
2017-06-16T12:09:18.084Z,34.70
2017-06-16T12:11:46.396Z,33.50
2017-06-16T12:14:14.675Z,32.70
2017-06-16T12:16:42.933Z,32.60
2017-06-16T12:19:11.252Z,34.30
2017-06-16T12:21:40.296Z,33.40
2017-06-16T12:24:08.576Z,33.30
2017-06-16T12:26:36.912Z,33.50
2017-06-16T12:29:05.184Z,34.30
2017-06-16T12:31:33.451Z,35.90
2017-06-16T12:34:01.768Z,37.30
2017-06-16T12:36:32.063Z,35.00
2017-06-16T12:39:00.336Z,34.10
2017-06-16T12:41:28.776Z,34.60
2017-06-16T12:43:57.832Z,34.90
2017-06-16T12:46:26.100Z,34.60
2017-06-16T12:48:54.420Z,37.20
2017-06-16T12:51:22.681Z,34.30
2017-06-16T12:53:52.844Z,31.70
2017-06-16T12:56:21.160Z,31.60
2017-06-16T12:58:49.420Z,33.00
2017-06-16T13:01:17.688Z,34.20
2017-06-16T13:03:45.999Z,35.30
2017-06-16T13:06:14.296Z,36.00
2017-06-16T13:08:42.568Z,33.00
2017-06-16T13:11:10.880Z,32.70
2017-06-16T13:13:39.914Z,34.50
2017-06-16T13:16:08.188Z,34.40
2017-06-16T13:18:36.486Z,33.80
2017-06-16T13:21:05.527Z,34.90
2017-06-16T13:23:33.806Z,35.00
2017-06-16T13:26:02.884Z,35.50
2017-06-16T13:28:31.156Z,35.50
2017-06-16T13:31:00.205Z,35.70
2017-06-16T13:33:28.539Z,35.70
2017-06-16T13:35:56.804Z,36.80
2017-06-16T13:38:25.075Z,36.40
2017-06-16T13:40:53.388Z,37.10
2017-06-16T13:43:22.544Z,37.40
2017-06-16T13:45:50.812Z,37.20
2017-06-16T13:48:25.133Z,33.80
2017-06-16T13:50:54.164Z,33.30
2017-06-16T13:53:22.436Z,33.10
2017-06-16T13:55:50.936Z,33.90
2017-06-16T13:58:19.968Z,33.70
2017-06-16T14:00:48.252Z,33.70
2017-06-16T14:03:16.567Z,33.00
2017-06-16T14:05:44.839Z,31.70
2017-06-16T14:08:13.120Z,30.40
2017-06-16T14:10:41.436Z,30.00
2017-06-16T14:13:09.707Z,32.80
2017-06-16T14:15:37.988Z,31.20
2017-06-16T14:18:06.307Z,31.60
2017-06-16T14:20:35.339Z,29.90
2017-06-16T14:23:03.748Z,29.80
2017-06-16T14:25:32.815Z,29.60
2017-06-16T14:28:01.096Z,29.50
2017-06-16T14:30:30.131Z,29.80
2017-06-16T14:32:58.436Z,29.80
2017-06-16T14:35:26.716Z,31.30
2017-06-16T14:37:54.991Z,33.30
2017-06-16T14:40:23.612Z,33.10
2017-06-16T14:42:51.888Z,30.60
2017-06-16T14:45:20.932Z,31.20
2017-06-16T14:47:49.224Z,31.10
2017-06-16T14:50:18.826Z,33.90
2017-06-16T14:52:47.856Z,30.20
2017-06-16T14:55:16.356Z,30.20
2017-06-16T14:57:45.388Z,31.60
2017-06-16T15:00:14.575Z,33.10
2017-06-16T15:02:42.878Z,33.60
2017-06-16T15:05:11.920Z,31.90
2017-06-16T15:07:40.187Z,31.90
2017-06-16T15:10:08.492Z,31.20
2017-06-16T15:12:37.523Z,30.00
2017-06-16T15:15:05.809Z,30.00
2017-06-16T15:17:34.131Z,30.50
2017-06-16T15:20:02.404Z,34.00
2017-06-16T15:22:36.650Z,30.10
2017-06-16T15:25:05.692Z,28.90
2017-06-16T15:27:33.964Z,28.80
2017-06-16T15:30:02.267Z,31.40
2017-06-16T15:32:30.537Z,31.60
2017-06-16T15:34:58.852Z,30.30
2017-06-16T15:37:27.152Z,32.00
2017-06-16T15:39:55.426Z,32.80
2017-06-16T15:42:23.700Z,30.60
2017-06-16T15:44:52.004Z,31.40
2017-06-16T15:47:20.286Z,31.40
2017-06-16T15:49:49.313Z,30.00
2017-06-16T15:52:17.821Z,30.10
2017-06-16T15:54:46.087Z,33.30
2017-06-16T15:57:15.136Z,31.40
2017-06-16T15:59:43.628Z,31.30
2017-06-16T16:02:12.660Z,31.40
2017-06-16T16:04:40.936Z,31.40
2017-06-16T16:07:09.242Z,32.40
2017-06-16T16:09:37.531Z,32.00
2017-06-16T16:12:07.255Z,32.50
2017-06-16T16:14:35.916Z,32.40
2017-06-16T16:17:04.196Z,32.70
2017-06-16T16:19:32.471Z,34.90
2017-06-16T16:22:00.768Z,32.80
2017-06-16T16:24:29.044Z,32.80
2017-06-16T16:26:57.315Z,34.20
2017-06-16T16:29:25.748Z,33.10
2017-06-16T16:31:54.772Z,32.50
2017-06-16T16:34:23.043Z,32.50
2017-06-16T16:36:52.395Z,34.80
2017-06-16T16:39:20.699Z,34.40
2017-06-16T16:41:48.993Z,33.90
2017-06-16T16:44:18.072Z,35.50
2017-06-16T16:46:46.340Z,35.40
2017-06-16T16:49:14.615Z,35.20
2017-06-16T16:51:42.942Z,35.10
2017-06-16T16:54:11.208Z,35.30
2017-06-16T16:56:41.771Z,35.60
2017-06-16T16:59:10.069Z,35.40
2017-06-16T17:01:38.341Z,37.00
2017-06-16T17:04:07.404Z,36.20
2017-06-16T17:06:35.743Z,36.20
2017-06-16T17:09:04.024Z,36.80
2017-06-16T17:11:32.296Z,36.80
2017-06-16T17:14:01.385Z,36.70
2017-06-16T17:16:29.662Z,36.70
2017-06-16T17:18:57.939Z,36.60
2017-06-16T17:21:26.253Z,36.70
2017-06-16T17:23:54.519Z,37.00
2017-06-16T17:26:22.792Z,36.60
2017-06-16T17:28:51.099Z,37.50
2017-06-16T17:31:19.380Z,36.50
2017-06-16T17:33:47.655Z,36.80
2017-06-16T17:36:16.145Z,37.20
2017-06-16T17:38:45.185Z,38.80
2017-06-16T17:41:13.453Z,38.60
2017-06-16T17:43:41.952Z,38.90
2017-06-16T17:46:10.992Z,40.20
2017-06-16T17:48:39.264Z,39.30
2017-06-16T17:51:07.596Z,37.90
2017-06-16T17:53:35.863Z,37.90
2017-06-16T17:56:04.160Z,37.60
2017-06-16T17:58:32.488Z,39.00
2017-06-16T18:01:00.776Z,38.80
2017-06-16T18:03:29.063Z,38.40
2017-06-16T18:05:57.368Z,37.70
2017-06-16T18:08:25.652Z,37.80
2017-06-16T18:10:53.908Z,38.70
2017-06-16T18:13:22.209Z,38.10
2017-06-16T18:15:51.247Z,37.00
2017-06-16T18:18:19.520Z,37.00
2017-06-16T18:20:47.848Z,37.60
2017-06-16T18:23:16.112Z,35.80
2017-06-16T18:25:44.392Z,36.00
2017-06-16T18:28:12.699Z,37.10
2017-06-16T18:30:41.736Z,36.40
2017-06-16T18:33:10.003Z,36.30
2017-06-16T18:35:38.328Z,36.60
2017-06-16T18:38:06.608Z,37.20
2017-06-16T18:40:34.888Z,37.20
2017-06-16T18:43:03.224Z,37.20
2017-06-16T18:45:33.459Z,38.10
2017-06-16T18:48:01.736Z,38.50
2017-06-16T18:50:30.096Z,38.50
2017-06-16T18:52:58.398Z,39.50
2017-06-16T18:55:26.668Z,39.10
2017-06-16T18:57:55.102Z,39.10
2017-06-16T19:00:24.144Z,40.00
2017-06-16T19:02:52.415Z,40.00
2017-06-16T19:05:20.732Z,39.80
2017-06-16T19:07:49.007Z,39.00
2017-06-16T19:10:17.301Z,39.10
2017-06-16T19:12:45.608Z,39.20
2017-06-16T19:15:13.888Z,39.70
2017-06-16T19:17:42.160Z,40.30
2017-06-16T19:20:10.476Z,40.20
2017-06-16T19:22:39.911Z,39.80
2017-06-16T19:25:08.167Z,39.70
2017-06-16T19:27:36.472Z,41.00
2017-06-16T19:30:04.740Z,40.20
2017-06-16T19:32:33.779Z,39.80
2017-06-16T19:35:02.091Z,39.70
2017-06-16T19:37:31.140Z,40.20
2017-06-16T19:39:59.404Z,40.10
2017-06-16T19:42:29.457Z,40.60
2017-06-16T19:44:57.743Z,40.30
2017-06-16T19:47:26.005Z,40.10
2017-06-16T19:49:54.324Z,40.80
2017-06-16T19:52:22.598Z,40.10
2017-06-16T19:54:50.872Z,40.60
2017-06-16T19:57:19.213Z,41.50
2017-06-16T19:59:47.483Z,40.90
2017-06-16T20:02:16.516Z,41.50
2017-06-16T20:04:44.812Z,41.30
2017-06-16T20:07:13.088Z,42.10
2017-06-16T20:09:42.131Z,41.90
2017-06-16T20:12:10.428Z,41.80
2017-06-16T20:14:39.459Z,41.90
2017-06-16T20:17:07.732Z,41.70
2017-06-16T20:19:36.236Z,43.10
2017-06-16T20:22:05.282Z,43.50
2017-06-16T20:24:33.554Z,43.40
2017-06-16T20:27:02.024Z,42.60
2017-06-16T20:29:30.293Z,43.30
2017-06-16T20:31:59.336Z,44.20
2017-06-16T20:34:27.656Z,43.40
2017-06-16T20:36:55.927Z,43.50
2017-06-16T20:39:24.208Z,42.70
2017-06-16T20:41:52.719Z,42.90
2017-06-16T20:44:25.950Z,43.50
2017-06-16T20:46:54.264Z,44.60
2017-06-16T20:49:23.308Z,43.40
2017-06-16T20:51:51.580Z,43.30
2017-06-16T20:54:19.868Z,43.40
2017-06-16T20:56:48.913Z,43.40
2017-06-16T20:59:23.512Z,43.40
2017-06-16T21:01:57.219Z,44.10
2017-06-16T21:04:31.632Z,45.20
2017-06-16T21:07:06.711Z,45.20
2017-06-16T21:09:41.380Z,44.60
2017-06-16T21:12:15.079Z,44.50
2017-06-16T21:14:49.000Z,45.20
2017-06-16T21:17:22.868Z,45.40
2017-06-16T21:19:57.152Z,45.70
2017-06-16T21:22:37.031Z,46.30
2017-06-16T21:25:11.788Z,47.20
2017-06-16T21:27:45.739Z,47.20
2017-06-16T21:30:20.161Z,45.20
2017-06-16T21:32:53.996Z,45.20
2017-06-16T21:35:28.691Z,45.00
2017-06-16T21:38:03.360Z,45.40
2017-06-16T21:40:38.301Z,45.60
2017-06-16T21:43:06.572Z,45.50
2017-06-16T21:45:35.708Z,46.00
2017-06-16T21:48:04.016Z,45.80
2017-06-16T21:50:33.049Z,46.20
2017-06-16T21:53:01.319Z,46.70
2017-06-16T21:55:29.625Z,46.60
2017-06-16T21:57:57.905Z,46.70
2017-06-16T22:00:26.172Z,47.00
2017-06-16T22:02:54.480Z,46.20
2017-06-16T22:05:23.962Z,46.30
2017-06-16T22:07:52.895Z,46.50
2017-06-16T22:10:21.332Z,46.60
2017-06-16T22:12:49.600Z,46.60
2017-06-16T22:15:18.635Z,46.70
2017-06-16T22:17:46.964Z,46.60
2017-06-16T22:20:15.240Z,46.30
2017-06-16T22:22:43.504Z,47.10
2017-06-16T22:25:11.831Z,47.10
2017-06-16T22:27:41.871Z,47.10
2017-06-16T22:30:10.158Z,47.00
2017-06-16T22:32:38.464Z,47.00
2017-06-16T22:35:06.732Z,47.90
2017-06-16T22:37:35.008Z,48.90
2017-06-16T22:40:03.416Z,47.80
2017-06-16T22:42:31.687Z,48.50
2017-06-16T22:44:59.952Z,48.10
2017-06-16T22:47:29.037Z,48.40
2017-06-16T22:49:58.068Z,48.70
2017-06-16T22:52:26.340Z,48.70
2017-06-16T22:54:54.653Z,48.80
2017-06-16T22:57:23.792Z,49.70
2017-06-16T22:59:52.058Z,49.50
2017-06-16T23:02:20.365Z,49.90
2017-06-16T23:04:48.631Z,50.50
2017-06-16T23:07:16.903Z,50.20
2017-06-16T23:09:45.216Z,50.40
2017-06-16T23:12:13.484Z,50.30
2017-06-16T23:14:42.516Z,50.70
2017-06-16T23:17:10.829Z,50.50
2017-06-16T23:19:39.860Z,50.70
2017-06-16T23:22:08.129Z,50.60
2017-06-16T23:24:36.446Z,50.70
2017-06-16T23:27:05.480Z,50.70
2017-06-16T23:29:33.744Z,50.60
2017-06-16T23:32:02.064Z,50.70
2017-06-16T23:34:30.339Z,50.60
2017-06-16T23:36:58.644Z,51.00
2017-06-16T23:39:26.944Z,50.60
2017-06-16T23:41:55.224Z,50.60
2017-06-16T23:44:23.496Z,50.60
2017-06-16T23:46:51.794Z,50.50
2017-06-16T23:49:20.056Z,51.20
2017-06-16T23:51:48.324Z,51.50
2017-06-16T23:54:17.499Z,51.00
2017-06-16T23:56:45.772Z,50.90
2017-06-16T23:59:15.829Z,50.50
